Storden, Minnesota
Current Conditions -  °F | °C
As of 3:53 AM on Friday 19 Dec 2014 (Local Time) from KMWM Reporting Station
Haze Haze  
Wind Chill: 27°   Ceiling: 900
Heat Index: 27°   Visibility: 4mi
Dew Point: 27°   Wind: 0mph
Humidity: 100%   Direction: NA
Pressure: 30.18"   Gusts: NA
Location:  44.04°N, 95.32°W
Report Text: KMWM 190953Z AUTO 00000KT 4SM BR OVC009 M03/M03 A3018 RMK AO2
Loading
Personal Weather Stations






























Interactive Weather Map New forecast layout! Learn more

10-Day Weather Forecast

Advertisements
Track Severe Weather on mobile